sensor_id;sensor_type;location;lat;lon;timestamp;pressure;altitude;pressure_sealevel;temperature;humidity
79639;BME280;69114;49.108;8.280;2024-02-28T00:01:16;100436.78;;;5.11;100.00
79639;BME280;69114;49.108;8.280;2024-02-28T00:03:41;100438.44;;;5.12;100.00
79639;BME280;69114;49.108;8.280;2024-02-28T00:06:06;100440.13;;;5.13;100.00
79639;BME280;69114;49.108;8.280;2024-02-28T00:08:32;100436.25;;;5.09;100.00
79639;BME280;69114;49.108;8.280;2024-02-28T00:10:57;100432.09;;;5.06;100.00
79639;BME280;69114;49.108;8.280;2024-02-28T00:13:22;100443.69;;;5.03;100.00
79639;BME280;69114;49.108;8.280;2024-02-28T00:15:49;100437.59;;;4.96;100.00
79639;BME280;69114;49.108;8.280;2024-02-28T00:18:15;100438.69;;;4.90;100.00
79639;BME280;69114;49.108;8.280;2024-02-28T00:20:40;100434.28;;;4.89;100.00
79639;BME280;69114;49.108;8.280;2024-02-28T00:23:05;100440.31;;;4.86;100.00
79639;BME280;69114;49.108;8.280;2024-02-28T00:25:31;100446.66;;;4.81;100.00
79639;BME280;69114;49.108;8.280;2024-02-28T00:27:56;100443.06;;;4.81;100.00
79639;BME280;69114;49.108;8.280;2024-02-28T00:30:22;100444.72;;;4.82;100.00
79639;BME280;69114;49.108;8.280;2024-02-28T00:32:47;100449.44;;;4.81;100.00
79639;BME280;69114;49.108;8.280;2024-02-28T00:35:12;100453.00;;;4.82;100.00
79639;BME280;69114;49.108;8.280;2024-02-28T00:37:38;100455.75;;;4.77;100.00
79639;BME280;69114;49.108;8.280;2024-02-28T00:40:04;100456.03;;;4.75;100.00
79639;BME280;69114;49.108;8.280;2024-02-28T00:42:29;100456.88;;;4.76;100.00
79639;BME280;69114;49.108;8.280;2024-02-28T00:44:54;100447.19;;;4.73;100.00
79639;BME280;69114;49.108;8.280;2024-02-28T00:47:20;100452.41;;;4.70;100.00
79639;BME280;69114;49.108;8.280;2024-02-28T00:49:45;100455.75;;;4.72;100.00
79639;BME280;69114;49.108;8.280;2024-02-28T00:52:10;100453.50;;;4.69;100.00
79639;BME280;69114;49.108;8.280;2024-02-28T00:54:36;100449.63;;;4.65;100.00
79639;BME280;69114;49.108;8.280;2024-02-28T00:57:02;100459.56;;;4.60;100.00
79639;BME280;69114;49.108;8.280;2024-02-28T00:59:27;100455.41;;;4.58;100.00
79639;BME280;69114;49.108;8.280;2024-02-28T01:01:53;100454.59;;;4.57;100.00
79639;BME280;69114;49.108;8.280;2024-02-28T01:04:18;100449.59;;;4.54;100.00
79639;BME280;69114;49.108;8.280;2024-02-28T01:06:43;100450.38;;;4.45;100.00
79639;BME280;69114;49.108;8.280;2024-02-28T01:09:09;100448.44;;;4.45;100.00
79639;BME280;69114;49.108;8.280;2024-02-28T01:11:34;100454.75;;;4.41;100.00
79639;BME280;69114;49.108;8.280;2024-02-28T01:13:59;100451.97;;;4.35;100.00
79639;BME280;69114;49.108;8.280;2024-02-28T01:16:25;100453.63;;;4.31;100.00
79639;BME280;69114;49.108;8.280;2024-02-28T01:18:51;100456.66;;;4.30;100.00
79639;BME280;69114;49.108;8.280;2024-02-28T01:21:16;100459.41;;;4.30;100.00
79639;BME280;69114;49.108;8.280;2024-02-28T01:23:41;100459.09;;;4.26;100.00
79639;BME280;69114;49.108;8.280;2024-02-28T01:26:07;100464.06;;;4.24;100.00
79639;BME280;69114;49.108;8.280;2024-02-28T01:28:32;100472.63;;;4.23;100.00
79639;BME280;69114;49.108;8.280;2024-02-28T01:30:57;100475.06;;;4.19;100.00
79639;BME280;69114;49.108;8.280;2024-02-28T01:33:23;100470.91;;;4.17;100.00
79639;BME280;69114;49.108;8.280;2024-02-28T01:35:48;100471.97;;;4.10;100.00
79639;BME280;69114;49.108;8.280;2024-02-28T01:38:14;100476.34;;;4.06;100.00
79639;BME280;69114;49.108;8.280;2024-02-28T01:40:44;100482.94;;;4.00;100.00
79639;BME280;69114;49.108;8.280;2024-02-28T01:43:11;100480.72;;;4.02;100.00
79639;BME280;69114;49.108;8.280;2024-02-28T01:45:36;100484.59;;;4.01;100.00
79639;BME280;69114;49.108;8.280;2024-02-28T01:48:02;100477.16;;;4.02;100.00
79639;BME280;69114;49.108;8.280;2024-02-28T01:50:30;100479.59;;;3.98;100.00
79639;BME280;69114;49.108;8.280;2024-02-28T01:52:56;100483.47;;;3.97;100.00
79639;BME280;69114;49.108;8.280;2024-02-28T01:55:21;100483.47;;;3.97;100.00
79639;BME280;69114;49.108;8.280;2024-02-28T01:57:47;100479.31;;;3.95;100.00
79639;BME280;69114;49.108;8.280;2024-02-28T02:00:13;100474.06;;;3.93;100.00
79639;BME280;69114;49.108;8.280;2024-02-28T02:02:41;100478.19;;;3.91;100.00
79639;BME280;69114;49.108;8.280;2024-02-28T02:05:07;100480.41;;;3.94;100.00
79639;BME280;69114;49.108;8.280;2024-02-28T02:07:33;100491.69;;;3.92;100.00
79639;BME280;69114;49.108;8.280;2024-02-28T02:10:00;100495.25;;;3.88;100.00
79639;BME280;69114;49.108;8.280;2024-02-28T02:12:26;100495.25;;;3.88;100.00
79639;BME280;69114;49.108;8.280;2024-02-28T02:14:51;100492.75;;;3.86;100.00
79639;BME280;69114;49.108;8.280;2024-02-28T02:17:16;100500.47;;;3.89;100.00
79639;BME280;69114;49.108;8.280;2024-02-28T02:19:42;100504.88;;;3.85;100.00
79639;BME280;69114;49.108;8.280;2024-02-28T02:22:08;100504.28;;;3.83;100.00
79639;BME280;69114;49.108;8.280;2024-02-28T02:24:34;100501.22;;;3.79;100.00
79639;BME280;69114;49.108;8.280;2024-02-28T02:27:01;100511.41;;;3.79;100.00
79639;BME280;69114;49.108;8.280;2024-02-28T02:29:27;100501.50;;;3.78;100.00
79639;BME280;69114;49.108;8.280;2024-02-28T02:31:53;100507.00;;;3.78;100.00
79639;BME280;69114;49.108;8.280;2024-02-28T02:34:19;100503.13;;;3.74;100.00
79639;BME280;69114;49.108;8.280;2024-02-28T02:36:44;100515.22;;;3.73;100.00
79639;BME280;69114;49.108;8.280;2024-02-28T02:39:09;100519.34;;;3.70;100.00
79639;BME280;69114;49.108;8.280;2024-02-28T02:41:34;100517.44;;;3.71;100.00
79639;BME280;69114;49.108;8.280;2024-02-28T02:44:00;100514.38;;;3.67;100.00
79639;BME280;69114;49.108;8.280;2024-02-28T02:46:25;100511.34;;;3.69;100.00
79639;BME280;69114;49.108;8.280;2024-02-28T02:48:50;100514.09;;;3.69;100.00
79639;BME280;69114;49.108;8.280;2024-02-28T02:51:18;100517.69;;;3.69;100.00
79639;BME280;69114;49.108;8.280;2024-02-28T02:53:44;100520.97;;;3.66;100.00
79639;BME280;69114;49.108;8.280;2024-02-28T02:56:09;100524.78;;;3.65;100.00
79639;BME280;69114;49.108;8.280;2024-02-28T02:58:34;100524.50;;;3.62;100.00
79639;BME280;69114;49.108;8.280;2024-02-28T03:01:00;100540.22;;;3.61;100.00
79639;BME280;69114;49.108;8.280;2024-02-28T03:03:25;100546.53;;;3.62;100.00
79639;BME280;69114;49.108;8.280;2024-02-28T03:05:50;100540.13;;;3.56;100.00
79639;BME280;69114;49.108;8.280;2024-02-28T03:08:16;100548.09;;;3.52;100.00
79639;BME280;69114;49.108;8.280;2024-02-28T03:10:41;100548.34;;;3.51;100.00
79639;BME280;69114;49.108;8.280;2024-02-28T03:13:07;100544.75;;;3.50;100.00
79639;BME280;69114;49.108;8.280;2024-02-28T03:15:33;100546.97;;;3.48;100.00
79639;BME280;69114;49.108;8.280;2024-02-28T03:17:58;100553.75;;;3.41;100.00
79639;BME280;69114;49.108;8.280;2024-02-28T03:20:23;100548.25;;;3.41;100.00
79639;BME280;69114;49.108;8.280;2024-02-28T03:22:49;100549.81;;;3.31;100.00
79639;BME280;69114;49.108;8.280;2024-02-28T03:25:14;100549.63;;;3.16;100.00
79639;BME280;69114;49.108;8.280;2024-02-28T03:27:39;100564.06;;;3.01;100.00
79639;BME280;69114;49.108;8.280;2024-02-28T03:30:05;100559.66;;;3.00;100.00
79639;BME280;69114;49.108;8.280;2024-02-28T03:32:31;100567.19;;;2.88;100.00
79639;BME280;69114;49.108;8.280;2024-02-28T03:34:56;100567.63;;;2.80;100.00
79639;BME280;69114;49.108;8.280;2024-02-28T03:37:22;100567.81;;;2.73;100.00
79639;BME280;69114;49.108;8.280;2024-02-28T03:39:47;100576.28;;;2.67;100.00
79639;BME280;69114;49.108;8.280;2024-02-28T03:42:12;100579.53;;;2.64;100.00
79639;BME280;69114;49.108;8.280;2024-02-28T03:44:38;100587.13;;;2.56;100.00
79639;BME280;69114;49.108;8.280;2024-02-28T03:47:03;100590.03;;;2.50;100.00
79639;BME280;69114;49.108;8.280;2024-02-28T03:49:28;100593.53;;;2.45;100.00
79639;BME280;69114;49.108;8.280;2024-02-28T03:51:54;100585.22;;;2.40;100.00
79639;BME280;69114;49.108;8.280;2024-02-28T03:54:19;100588.47;;;2.37;100.00
79639;BME280;69114;49.108;8.280;2024-02-28T03:56:44;100588.56;;;2.42;100.00
79639;BME280;69114;49.108;8.280;2024-02-28T03:59:10;100584.38;;;2.56;100.00
79639;BME280;69114;49.108;8.280;2024-02-28T04:01:35;100601.94;;;2.55;100.00
79639;BME280;69114;49.108;8.280;2024-02-28T04:04:01;100593.38;;;2.52;100.00
79639;BME280;69114;49.108;8.280;2024-02-28T04:06:27;100598.72;;;2.42;100.00
79639;BME280;69114;49.108;8.280;2024-02-28T04:08:53;100602.06;;;2.44;100.00
79639;BME280;69114;49.108;8.280;2024-02-28T04:11:18;100609.41;;;2.38;100.00
79639;BME280;69114;49.108;8.280;2024-02-28T04:13:44;100614.38;;;2.41;100.00
79639;BME280;69114;49.108;8.280;2024-02-28T04:16:09;100618.38;;;2.50;100.00
79639;BME280;69114;49.108;8.280;2024-02-28T04:18:35;100624.47;;;2.52;100.00
79639;BME280;69114;49.108;8.280;2024-02-28T04:21:00;100631.03;;;2.51;100.00
79639;BME280;69114;49.108;8.280;2024-02-28T04:23:25;100634.72;;;2.40;100.00
79639;BME280;69114;49.108;8.280;2024-02-28T04:25:51;100625.13;;;2.26;100.00
79639;BME280;69114;49.108;8.280;2024-02-28T04:28:16;100626.88;;;2.15;100.00
79639;BME280;69114;49.108;8.280;2024-02-28T04:30:41;100626.56;;;2.12;100.00
79639;BME280;69114;49.108;8.280;2024-02-28T04:33:07;100625.28;;;2.02;100.00
79639;BME280;69114;49.108;8.280;2024-02-28T04:35:32;100626.69;;;1.88;100.00
79639;BME280;69114;49.108;8.280;2024-02-28T04:37:58;100622.19;;;1.82;100.00
79639;BME280;69114;49.108;8.280;2024-02-28T04:40:23;100629.84;;;1.80;100.00
79639;BME280;69114;49.108;8.280;2024-02-28T04:42:49;100635.94;;;1.82;100.00
79639;BME280;69114;49.108;8.280;2024-02-28T04:45:14;100635.25;;;1.75;100.00
79639;BME280;69114;49.108;8.280;2024-02-28T04:47:39;100630.66;;;1.64;100.00
79639;BME280;69114;49.108;8.280;2024-02-28T04:50:05;100637.25;;;1.51;100.00
79639;BME280;69114;49.108;8.280;2024-02-28T04:52:34;100635.25;;;1.46;100.00
79639;BME280;69114;49.108;8.280;2024-02-28T04:55:00;100635.88;;;1.37;100.00
79639;BME280;69114;49.108;8.280;2024-02-28T04:57:25;100641.38;;;1.37;100.00
79639;BME280;69114;49.108;8.280;2024-02-28T04:59:50;100644.25;;;1.30;100.00
79639;BME280;69114;49.108;8.280;2024-02-28T05:02:16;100652.13;;;1.26;100.00
79639;BME280;69114;49.108;8.280;2024-02-28T05:04:47;100664.78;;;1.27;100.00
79639;BME280;69114;49.108;8.280;2024-02-28T05:07:12;100664.69;;;1.22;100.00
79639;BME280;69114;49.108;8.280;2024-02-28T05:09:38;100671.63;;;1.13;100.00
79639;BME280;69114;49.108;8.280;2024-02-28T05:12:03;100667.47;;;1.11;100.00
79639;BME280;69114;49.108;8.280;2024-02-28T05:14:29;100675.47;;;1.00;100.00
79639;BME280;69114;49.108;8.280;2024-02-28T05:16:54;100677.59;;;0.98;100.00
79639;BME280;69114;49.108;8.280;2024-02-28T05:19:19;100686.34;;;0.95;100.00
79639;BME280;69114;49.108;8.280;2024-02-28T05:21:45;100680.97;;;0.89;100.00
79639;BME280;69114;49.108;8.280;2024-02-28T05:24:11;100690.75;;;0.96;100.00
79639;BME280;69114;49.108;8.280;2024-02-28T05:26:36;100693.13;;;0.93;100.00
79639;BME280;69114;49.108;8.280;2024-02-28T05:29:03;100701.59;;;0.91;100.00
79639;BME280;69114;49.108;8.280;2024-02-28T05:31:29;100689.06;;;0.95;100.00
79639;BME280;69114;49.108;8.280;2024-02-28T05:33:57;100691.09;;;0.88;100.00
79639;BME280;69114;49.108;8.280;2024-02-28T05:36:23;100694.44;;;0.79;100.00
79639;BME280;69114;49.108;8.280;2024-02-28T05:38:49;100691.13;;;0.76;100.00
79639;BME280;69114;49.108;8.280;2024-02-28T05:41:18;100697.44;;;0.77;100.00
79639;BME280;69114;49.108;8.280;2024-02-28T05:43:43;100690.63;;;0.80;100.00
79639;BME280;69114;49.108;8.280;2024-02-28T05:46:09;100695.28;;;0.79;100.00
79639;BME280;69114;49.108;8.280;2024-02-28T05:48:35;100705.28;;;0.85;100.00
79639;BME280;69114;49.108;8.280;2024-02-28T05:51:01;100706.34;;;0.84;100.00
79639;BME280;69114;49.108;8.280;2024-02-28T05:53:26;100711.13;;;0.77;100.00
79639;BME280;69114;49.108;8.280;2024-02-28T05:55:52;100701.81;;;0.66;100.00
79639;BME280;69114;49.108;8.280;2024-02-28T05:58:22;100700.53;;;0.69;100.00
79639;BME280;69114;49.108;8.280;2024-02-28T06:00:47;100703.97;;;0.64;100.00
79639;BME280;69114;49.108;8.280;2024-02-28T06:03:13;100709.56;;;0.69;100.00
79639;BME280;69114;49.108;8.280;2024-02-28T06:05:38;100711.13;;;0.77;100.00
79639;BME280;69114;49.108;8.280;2024-02-28T06:08:03;100720.66;;;0.74;100.00
79639;BME280;69114;49.108;8.280;2024-02-28T06:10:29;100724.94;;;0.70;100.00
79639;BME280;69114;49.108;8.280;2024-02-28T06:12:54;100735.66;;;0.60;100.00
79639;BME280;69114;49.108;8.280;2024-02-28T06:15:19;100732.81;;;0.55;100.00
79639;BME280;69114;49.108;8.280;2024-02-28T06:17:45;100732.34;;;0.58;100.00
79639;BME280;69114;49.108;8.280;2024-02-28T06:20:11;100744.97;;;0.59;100.00
79639;BME280;69114;49.108;8.280;2024-02-28T06:22:36;100752.13;;;0.60;100.00
79639;BME280;69114;49.108;8.280;2024-02-28T06:25:01;100748.66;;;0.65;100.00
79639;BME280;69114;49.108;8.280;2024-02-28T06:27:27;100740.44;;;0.65;100.00
79639;BME280;69114;49.108;8.280;2024-02-28T06:29:52;100749.88;;;0.69;100.00
79639;BME280;69114;49.108;8.280;2024-02-28T06:32:18;100739.97;;;0.68;100.00
79639;BME280;69114;49.108;8.280;2024-02-28T06:34:43;100741.31;;;0.77;100.00
79639;BME280;69114;49.108;8.280;2024-02-28T06:37:08;100732.56;;;0.80;100.00
79639;BME280;69114;49.108;8.280;2024-02-28T06:39:34;100743.53;;;0.80;100.00
79639;BME280;69114;49.108;8.280;2024-02-28T06:41:59;100741.78;;;0.86;100.00
79639;BME280;69114;49.108;8.280;2024-02-28T06:44:24;100748.81;;;0.82;100.00
79639;BME280;69114;49.108;8.280;2024-02-28T06:46:49;100750.13;;;0.91;100.00
79639;BME280;69114;49.108;8.280;2024-02-28T06:49:15;100756.06;;;0.99;100.00
79639;BME280;69114;49.108;8.280;2024-02-28T06:51:41;100763.47;;;1.11;100.00
79639;BME280;69114;49.108;8.280;2024-02-28T06:54:07;100765.38;;;1.22;100.00
79639;BME280;69114;49.108;8.280;2024-02-28T06:56:32;100765.72;;;1.37;100.00
79639;BME280;69114;49.108;8.280;2024-02-28T06:58:57;100771.66;;;1.58;100.00
79639;BME280;69114;49.108;8.280;2024-02-28T07:01:22;100771.97;;;1.73;100.00
79639;BME280;69114;49.108;8.280;2024-02-28T07:03:48;100771.69;;;1.86;100.00
79639;BME280;69114;49.108;8.280;2024-02-28T07:06:13;100773.19;;;1.94;100.00
79639;BME280;69114;49.108;8.280;2024-02-28T07:08:38;100780.50;;;2.00;100.00
79639;BME280;69114;49.108;8.280;2024-02-28T07:11:04;100783.34;;;2.05;100.00
79639;BME280;69114;49.108;8.280;2024-02-28T07:13:29;100779.94;;;2.15;100.00
79639;BME280;69114;49.108;8.280;2024-02-28T07:15:55;100773.66;;;2.31;100.00
79639;BME280;69114;49.108;8.280;2024-02-28T07:18:23;100777.41;;;2.42;100.00
79639;BME280;69114;49.108;8.280;2024-02-28T07:20:51;100777.84;;;2.50;100.00
79639;BME280;69114;49.108;8.280;2024-02-28T07:23:17;100786.78;;;2.58;100.00
79639;BME280;69114;49.108;8.280;2024-02-28T07:25:42;100796.13;;;2.73;100.00
79639;BME280;69114;49.108;8.280;2024-02-28T07:28:08;100794.53;;;2.94;100.00
79639;BME280;69114;49.108;8.280;2024-02-28T07:30:33;100798.03;;;3.06;100.00
79639;BME280;69114;49.108;8.280;2024-02-28T07:32:58;100797.56;;;3.10;100.00
79639;BME280;69114;49.108;8.280;2024-02-28T07:35:24;100804.53;;;3.17;100.00
79639;BME280;69114;49.108;8.280;2024-02-28T07:37:49;100805.22;;;3.24;100.00
79639;BME280;69114;49.108;8.280;2024-02-28T07:40:15;100798.94;;;3.29;100.00
79639;BME280;69114;49.108;8.280;2024-02-28T07:42:40;100812.38;;;3.42;100.00
79639;BME280;69114;49.108;8.280;2024-02-28T07:45:06;100807.97;;;3.63;100.00
79639;BME280;69114;49.108;8.280;2024-02-28T07:47:33;100814.97;;;3.71;100.00
79639;BME280;69114;49.108;8.280;2024-02-28T07:49:59;100817.25;;;3.79;100.00
79639;BME280;69114;49.108;8.280;2024-02-28T07:52:24;100817.91;;;3.86;100.00
79639;BME280;69114;49.108;8.280;2024-02-28T07:54:49;100812.84;;;4.00;100.00
79639;BME280;69114;49.108;8.280;2024-02-28T07:57:15;100818.66;;;4.03;100.00
79639;BME280;69114;49.108;8.280;2024-02-28T07:59:43;100816.72;;;4.26;100.00
79639;BME280;69114;49.108;8.280;2024-02-28T08:02:09;100818.94;;;4.24;100.00
79639;BME280;69114;49.108;8.280;2024-02-28T08:04:36;100827.25;;;4.29;100.00
79639;BME280;69114;49.108;8.280;2024-02-28T08:07:02;100830.28;;;4.27;100.00
79639;BME280;69114;49.108;8.280;2024-02-28T08:09:28;100828.50;;;4.43;100.00
79639;BME280;69114;49.108;8.280;2024-02-28T08:11:54;100820.50;;;4.69;100.00
79639;BME280;69114;49.108;8.280;2024-02-28T08:14:19;100825.97;;;4.63;100.00
79639;BME280;69114;49.108;8.280;2024-02-28T08:16:44;100825.63;;;4.87;100.00
79639;BME280;69114;49.108;8.280;2024-02-28T08:19:10;100832.75;;;4.83;100.00
79639;BME280;69114;49.108;8.280;2024-02-28T08:21:35;100825.91;;;4.58;100.00
79639;BME280;69114;49.108;8.280;2024-02-28T08:24:00;100825.31;;;4.51;100.00
79639;BME280;69114;49.108;8.280;2024-02-28T08:26:29;100826.97;;;4.52;100.00
79639;BME280;69114;49.108;8.280;2024-02-28T08:28:55;100820.81;;;4.72;100.00
79639;BME280;69114;49.108;8.280;2024-02-28T08:31:20;100821.06;;;5.03;100.00
79639;BME280;69114;49.108;8.280;2024-02-28T08:33:45;100830.25;;;5.08;100.00
79639;BME280;69114;49.108;8.280;2024-02-28T08:36:11;100834.13;;;5.12;100.00
79639;BME280;69114;49.108;8.280;2024-02-28T08:38:36;100832.81;;;5.20;100.00
79639;BME280;69114;49.108;8.280;2024-02-28T08:41:04;100831.47;;;5.23;100.00
79639;BME280;69114;49.108;8.280;2024-02-28T08:43:29;100843.75;;;5.42;100.00
79639;BME280;69114;49.108;8.280;2024-02-28T08:45:55;100851.00;;;5.53;100.00
79639;BME280;69114;49.108;8.280;2024-02-28T08:48:20;100852.72;;;5.64;100.00
79639;BME280;69114;49.108;8.280;2024-02-28T08:50:45;100847.75;;;5.61;100.00
79639;BME280;69114;49.108;8.280;2024-02-28T08:53:11;100839.69;;;5.55;100.00
79639;BME280;69114;49.108;8.280;2024-02-28T08:55:36;100845.03;;;5.72;100.00
79639;BME280;69114;49.108;8.280;2024-02-28T08:58:01;100843.19;;;5.87;100.00
79639;BME280;69114;49.108;8.280;2024-02-28T09:00:27;100845.53;;;6.06;100.00
79639;BME280;69114;49.108;8.280;2024-02-28T09:02:52;100853.53;;;6.07;100.00
79639;BME280;69114;49.108;8.280;2024-02-28T09:05:17;100849.59;;;5.93;100.00
79639;BME280;69114;49.108;8.280;2024-02-28T09:07:43;100844.66;;;5.95;100.00
79639;BME280;69114;49.108;8.280;2024-02-28T09:10:09;100835.91;;;6.19;100.00
79639;BME280;69114;49.108;8.280;2024-02-28T09:12:34;100847.03;;;6.34;100.00
79639;BME280;69114;49.108;8.280;2024-02-28T09:15:00;100850.88;;;6.23;100.00
79639;BME280;69114;49.108;8.280;2024-02-28T09:17:25;100860.75;;;6.03;100.00
79639;BME280;69114;49.108;8.280;2024-02-28T09:19:52;100864.56;;;5.97;100.00
79639;BME280;69114;49.108;8.280;2024-02-28T09:22:17;100865.25;;;6.25;100.00
79639;BME280;69114;49.108;8.280;2024-02-28T09:24:43;100872.22;;;6.43;100.00
79639;BME280;69114;49.108;8.280;2024-02-28T09:27:08;100869.22;;;6.54;100.00
79639;BME280;69114;49.108;8.280;2024-02-28T09:29:33;100875.03;;;6.58;100.00
79639;BME280;69114;49.108;8.280;2024-02-28T09:31:59;100877.59;;;6.70;100.00
79639;BME280;69114;49.108;8.280;2024-02-28T09:34:24;100889.19;;;6.72;100.00
79639;BME280;69114;49.108;8.280;2024-02-28T09:36:49;100882.84;;;6.71;100.00
79639;BME280;69114;49.108;8.280;2024-02-28T09:39:15;100877.59;;;6.70;100.00
79639;BME280;69114;49.108;8.280;2024-02-28T09:41:41;100880.94;;;6.97;100.00
79639;BME280;69114;49.108;8.280;2024-02-28T09:44:07;100872.63;;;6.92;100.00
79639;BME280;69114;49.108;8.280;2024-02-28T09:46:33;100879.28;;;6.96;100.00
79639;BME280;69114;49.108;8.280;2024-02-28T09:49:03;100868.50;;;7.05;100.00
79639;BME280;69114;49.108;8.280;2024-02-28T09:51:32;100867.13;;;7.23;100.00
79639;BME280;69114;49.108;8.280;2024-02-28T09:53:58;100872.66;;;7.12;100.00
79639;BME280;69114;49.108;8.280;2024-02-28T09:56:25;100879.28;;;7.11;100.00
79639;BME280;69114;49.108;8.280;2024-02-28T09:58:51;100878.22;;;7.17;100.00
79639;BME280;69114;49.108;8.280;2024-02-28T10:01:18;100885.09;;;6.95;100.00
79639;BME280;69114;49.108;8.280;2024-02-28T10:03:47;100882.09;;;7.42;100.00
79639;BME280;69114;49.108;8.280;2024-02-28T10:06:12;100888.47;;;7.27;100.00
79639;BME280;69114;49.108;8.280;2024-02-28T10:08:38;100899.78;;;7.31;100.00
79639;BME280;69114;49.108;8.280;2024-02-28T10:11:07;100905.91;;;7.43;100.00
79639;BME280;69114;49.108;8.280;2024-02-28T10:13:33;100905.34;;;7.61;100.00
79639;BME280;69114;49.108;8.280;2024-02-28T10:15:58;100906.19;;;7.52;100.00
79639;BME280;69114;49.108;8.280;2024-02-28T10:18:25;100906.19;;;7.52;100.00
79639;BME280;69114;49.108;8.280;2024-02-28T10:20:51;100910.34;;;7.75;100.00
79639;BME280;69114;49.108;8.280;2024-02-28T10:23:16;100916.63;;;8.06;100.00
79639;BME280;69114;49.108;8.280;2024-02-28T10:25:45;100911.25;;;8.45;100.00
79639;BME280;69114;49.108;8.280;2024-02-28T10:28:11;100916.25;;;8.48;100.00
79639;BME280;69114;49.108;8.280;2024-02-28T10:30:40;100900.66;;;8.57;100.00
79639;BME280;69114;49.108;8.280;2024-02-28T10:33:10;100921.09;;;8.12;100.00
79639;BME280;69114;49.108;8.280;2024-02-28T10:35:36;100912.41;;;8.34;100.00
79639;BME280;69114;49.108;8.280;2024-02-28T10:38:02;100904.16;;;8.13;100.00
79639;BME280;69114;49.108;8.280;2024-02-28T10:40:27;100905.78;;;8.19;100.00
79639;BME280;69114;49.108;8.280;2024-02-28T10:42:53;100908.03;;;8.17;100.00
79639;BME280;69114;49.108;8.280;2024-02-28T10:45:20;100909.13;;;8.11;100.00
79639;BME280;69114;49.108;8.280;2024-02-28T10:47:50;100913.38;;;8.68;100.00
79639;BME280;69114;49.108;8.280;2024-02-28T10:50:16;100918.00;;;8.88;100.00
79639;BME280;69114;49.108;8.280;2024-02-28T10:52:45;100917.50;;;8.81;100.00
79639;BME280;69114;49.108;8.280;2024-02-28T10:55:13;100919.28;;;9.06;100.00
79639;BME280;69114;49.108;8.280;2024-02-28T10:57:39;100920.63;;;9.48;100.00
79639;BME280;69114;49.108;8.280;2024-02-28T11:00:06;100933.31;;;9.25;100.00
79639;BME280;69114;49.108;8.280;2024-02-28T11:02:32;100935.19;;;9.35;100.00
79639;BME280;69114;49.108;8.280;2024-02-28T11:04:58;100926.81;;;9.45;100.00
79639;BME280;69114;49.108;8.280;2024-02-28T11:07:26;100928.78;;;9.39;100.00
79639;BME280;69114;49.108;8.280;2024-02-28T11:09:55;100937.22;;;9.24;100.00
79639;BME280;69114;49.108;8.280;2024-02-28T11:12:25;100942.38;;;9.02;100.00
79639;BME280;69114;49.108;8.280;2024-02-28T11:15:02;100935.88;;;9.21;100.00
79639;BME280;69114;49.108;8.280;2024-02-28T11:17:29;100940.31;;;9.22;100.00
79639;BME280;69114;49.108;8.280;2024-02-28T11:19:55;100937.97;;;9.35;100.00
79639;BME280;69114;49.108;8.280;2024-02-28T11:22:20;100951.94;;;9.24;100.00
79639;BME280;69114;49.108;8.280;2024-02-28T11:24:46;100935.50;;;9.67;100.00
79639;BME280;69114;49.108;8.280;2024-02-28T11:27:12;100933.00;;;9.32;100.00
79639;BME280;69114;49.108;8.280;2024-02-28T11:29:40;100928.94;;;9.19;100.00
79639;BME280;69114;49.108;8.280;2024-02-28T11:32:06;100933.41;;;9.49;100.00
79639;BME280;69114;49.108;8.280;2024-02-28T11:34:33;100923.69;;;9.52;98.16
79639;BME280;69114;49.108;8.280;2024-02-28T11:36:59;100926.53;;;9.41;99.92
79639;BME280;69114;49.108;8.280;2024-02-28T11:39:24;100919.88;;;10.30;94.26
79639;BME280;69114;49.108;8.280;2024-02-28T11:41:50;100912.41;;;10.49;95.10
79639;BME280;69114;49.108;8.280;2024-02-28T11:44:16;100914.91;;;11.12;89.87
79639;BME280;69114;49.108;8.280;2024-02-28T11:46:46;100910.56;;;11.71;88.14
79639;BME280;69114;49.108;8.280;2024-02-28T11:49:15;100910.72;;;12.26;83.82
79639;BME280;69114;49.108;8.280;2024-02-28T11:51:41;100907.66;;;11.63;88.47
79639;BME280;69114;49.108;8.280;2024-02-28T11:54:08;100910.50;;;12.23;84.67
79639;BME280;69114;49.108;8.280;2024-02-28T11:56:34;100906.72;;;12.96;80.36
79639;BME280;69114;49.108;8.280;2024-02-28T11:59:00;100913.75;;;12.94;80.21
79639;BME280;69114;49.108;8.280;2024-02-28T12:01:35;100900.75;;;13.25;76.73
79639;BME280;69114;49.108;8.280;2024-02-28T12:04:02;100897.75;;;13.22;74.73
79639;BME280;69114;49.108;8.280;2024-02-28T12:06:29;100894.22;;;13.16;73.41
79639;BME280;69114;49.108;8.280;2024-02-28T12:08:54;100899.44;;;12.59;76.46
79639;BME280;69114;49.108;8.280;2024-02-28T12:11:20;100894.09;;;13.21;77.31
79639;BME280;69114;49.108;8.280;2024-02-28T12:13:45;100882.97;;;13.44;74.68
79639;BME280;69114;49.108;8.280;2024-02-28T12:16:10;100880.78;;;13.94;73.57
79639;BME280;69114;49.108;8.280;2024-02-28T12:18:36;100875.00;;;14.22;73.30
79639;BME280;69114;49.108;8.280;2024-02-28T12:21:02;100867.59;;;14.83;67.59
79639;BME280;69114;49.108;8.280;2024-02-28T12:23:27;100868.16;;;14.45;69.77
79639;BME280;69114;49.108;8.280;2024-02-28T12:25:52;100873.56;;;14.42;70.26
79639;BME280;69114;49.108;8.280;2024-02-28T12:28:18;100863.31;;;14.77;68.67
79639;BME280;69114;49.108;8.280;2024-02-28T12:30:43;100870.59;;;14.87;67.62
79639;BME280;69114;49.108;8.280;2024-02-28T12:33:10;100855.72;;;15.64;62.36
79639;BME280;69114;49.108;8.280;2024-02-28T12:35:36;100863.63;;;15.62;64.52
79639;BME280;69114;49.108;8.280;2024-02-28T12:38:02;100865.75;;;15.56;63.14
79639;BME280;69114;49.108;8.280;2024-02-28T12:40:27;100863.94;;;15.52;63.00
79639;BME280;69114;49.108;8.280;2024-02-28T12:42:52;100855.53;;;14.74;66.56